Humidity-temperature Sensor

Selected Measurement Type: Air Temperature

 
Air Temperature [°C]     6 entries per hour
Showing data from 6/22/2022 (00:00:00 Z) to 6/21/2022 (00:01:00 Z)
Previous Next [ Day | 3-Days | 7-Days ]
First Last
Prev [ Day | 3-Days | 7-Days ] Next
First Last

Start Time:     :
End Time:     :     
Time (in GMT) :00 :50 :40 :30 :20 :10
Previous Next [ Day | 3-Days | 7-Days ]
First Last
Prev [ Day | 3-Days | 7-Days ] Next
First Last


123 => good data
MM => data is determined as missing
-- => data not received/configured
Back to Top Back to Top
6/22/2022 00:00 to 23:10 26.08 25.98 25.93 26.00 25.97 26.07
6/21/2022 23:00 to 22:10 25.85 25.97 26.09 25.98 26.03 25.95
6/21/2022 22:00 to 21:10 25.97 26.01 25.92 25.85 25.85 25.81
6/21/2022 21:00 to 20:10 25.84 25.91 25.90 25.95 25.88 25.88
6/21/2022 20:00 to 19:10 25.78 25.87 25.92 25.85 25.83 25.79
6/21/2022 19:00 to 18:10 25.66 25.69 25.62 25.68 25.51 25.62
6/21/2022 18:00 to 17:10 25.68 25.57 25.55 25.53 25.48 25.71
6/21/2022 17:00 to 16:10 25.52 25.64 25.74 25.56 25.52 25.55
6/21/2022 16:00 to 15:10 25.53 25.43 25.69 25.45 25.43 25.19
6/21/2022 15:00 to 14:10 25.04 25.16 25.19 25.20 24.92 25.07
6/21/2022 14:00 to 13:10 24.98 25.05 25.06 25.08 25.03 24.98
6/21/2022 13:00 to 12:10 25.12 24.95 25.02 25.10 25.05 24.89
6/21/2022 12:00 to 11:10 25.10 25.04 25.13 25.09 25.17 25.11
6/21/2022 11:00 to 10:10 25.22 25.09 25.15 25.11 25.29 25.20
6/21/2022 10:00 to 9:10 25.17 25.23 25.27 25.21 25.12 25.34
6/21/2022 09:00 to 8:10 25.36 25.43 25.34 25.52 25.45 25.40
6/21/2022 08:00 to 7:10 25.51 25.35 25.43 25.37 25.52 25.46
6/21/2022 07:00 to 6:10 25.28 25.33 25.29 25.33 25.34 25.34
6/21/2022 06:00 to 5:10 25.35 25.34 25.32 25.51 25.32 25.35
6/21/2022 05:00 to 4:10 25.41 25.36 25.35 25.62 25.41 25.38
6/21/2022 04:00 to 3:10 25.41 25.60 25.37 25.44 25.26 25.34
6/21/2022 03:00 to 2:10 25.38 25.32 25.36 25.37 25.38 25.54
6/21/2022 02:00 to 1:10 25.67 25.56 25.60 25.61 25.75 25.53
6/21/2022 01:00 to 0:10 25.60 25.62 25.72 25.62 25.65 25.64